sensor_id;sensor_type;location;lat;lon;timestamp;temperature;humidity
35495;DHT22;21608;49.300;6.846;2022-09-09T00:03:27;25.20;48.60
35495;DHT22;21608;49.300;6.846;2022-09-09T00:13:32;25.20;48.60
35495;DHT22;21608;49.300;6.846;2022-09-09T00:16:38;25.20;48.60
35495;DHT22;21608;49.300;6.846;2022-09-09T00:19:58;25.20;48.60
35495;DHT22;21608;49.300;6.846;2022-09-09T00:23:23;25.20;48.60
35495;DHT22;21608;49.300;6.846;2022-09-09T00:26:34;25.20;48.60
35495;DHT22;21608;49.300;6.846;2022-09-09T00:29:45;25.20;48.60
35495;DHT22;21608;49.300;6.846;2022-09-09T00:32:51;25.20;48.50
35495;DHT22;21608;49.300;6.846;2022-09-09T00:35:57;25.20;48.60
35495;DHT22;21608;49.300;6.846;2022-09-09T00:39:01;25.20;48.60
35495;DHT22;21608;49.300;6.846;2022-09-09T00:42:17;25.20;48.50
35495;DHT22;21608;49.300;6.846;2022-09-09T00:55:20;25.20;48.50
35495;DHT22;21608;49.300;6.846;2022-09-09T00:58:24;25.20;48.50
35495;DHT22;21608;49.300;6.846;2022-09-09T01:01:26;25.20;48.50
35495;DHT22;21608;49.300;6.846;2022-09-09T01:04:33;25.20;48.50
35495;DHT22;21608;49.300;6.846;2022-09-09T01:07:36;25.20;49.00
35495;DHT22;21608;49.300;6.846;2022-09-09T01:10:50;25.20;48.50
35495;DHT22;21608;49.300;6.846;2022-09-09T01:14:32;25.20;48.50
35495;DHT22;21608;49.300;6.846;2022-09-09T01:18:16;25.20;48.50
35495;DHT22;21608;49.300;6.846;2022-09-09T01:25:22;25.20;48.40
35495;DHT22;21608;49.300;6.846;2022-09-09T01:28:39;25.20;48.50
35495;DHT22;21608;49.300;6.846;2022-09-09T01:32:35;25.20;48.50
35495;DHT22;21608;49.300;6.846;2022-09-09T01:39:21;25.20;48.40
35495;DHT22;21608;49.300;6.846;2022-09-09T01:42:31;25.20;48.40
35495;DHT22;21608;49.300;6.846;2022-09-09T01:45:33;25.10;48.40
35495;DHT22;21608;49.300;6.846;2022-09-09T01:48:36;25.20;48.40
35495;DHT22;21608;49.300;6.846;2022-09-09T01:51:42;25.10;48.40
35495;DHT22;21608;49.300;6.846;2022-09-09T01:54:47;25.20;48.40
35495;DHT22;21608;49.300;6.846;2022-09-09T02:01:13;25.20;48.40
35495;DHT22;21608;49.300;6.846;2022-09-09T02:07:47;25.10;48.30
35495;DHT22;21608;49.300;6.846;2022-09-09T02:11:07;25.20;48.40
35495;DHT22;21608;49.300;6.846;2022-09-09T02:14:20;25.10;48.30
35495;DHT22;21608;49.300;6.846;2022-09-09T02:17:31;25.10;48.30
35495;DHT22;21608;49.300;6.846;2022-09-09T02:20:41;25.10;48.30
35495;DHT22;21608;49.300;6.846;2022-09-09T02:23:47;25.10;48.30
35495;DHT22;21608;49.300;6.846;2022-09-09T02:26:53;25.10;48.30
35495;DHT22;21608;49.300;6.846;2022-09-09T02:29:57;25.10;48.30
35495;DHT22;21608;49.300;6.846;2022-09-09T02:33:26;25.10;48.30
35495;DHT22;21608;49.300;6.846;2022-09-09T02:36:31;25.10;48.30
35495;DHT22;21608;49.300;6.846;2022-09-09T02:39:35;25.10;48.30
35495;DHT22;21608;49.300;6.846;2022-09-09T02:42:40;25.10;48.20
35495;DHT22;21608;49.300;6.846;2022-09-09T02:49:02;25.10;48.30
35495;DHT22;21608;49.300;6.846;2022-09-09T02:52:26;25.10;48.20
35495;DHT22;21608;49.300;6.846;2022-09-09T02:55:47;25.10;48.30
35495;DHT22;21608;49.300;6.846;2022-09-09T02:58:52;25.10;48.90
35495;DHT22;21608;49.300;6.846;2022-09-09T03:01:54;25.10;48.20
35495;DHT22;21608;49.300;6.846;2022-09-09T03:04:56;25.10;48.20
35495;DHT22;21608;49.300;6.846;2022-09-09T03:07:58;25.00;48.20
35495;DHT22;21608;49.300;6.846;2022-09-09T03:11:00;25.10;48.20
35495;DHT22;21608;49.300;6.846;2022-09-09T03:14:08;25.00;48.20
35495;DHT22;21608;49.300;6.846;2022-09-09T03:17:12;25.00;48.30
35495;DHT22;21608;49.300;6.846;2022-09-09T03:20:22;25.00;48.80
35495;DHT22;21608;49.300;6.846;2022-09-09T03:23:25;25.00;48.20
35495;DHT22;21608;49.300;6.846;2022-09-09T03:26:26;25.00;48.30
35495;DHT22;21608;49.300;6.846;2022-09-09T03:29:29;25.00;48.30
35495;DHT22;21608;49.300;6.846;2022-09-09T03:32:33;25.00;48.20
35495;DHT22;21608;49.300;6.846;2022-09-09T03:35:35;25.00;48.30
35495;DHT22;21608;49.300;6.846;2022-09-09T03:38:38;25.00;48.30
35495;DHT22;21608;49.300;6.846;2022-09-09T03:41:40;25.00;48.30
35495;DHT22;21608;49.300;6.846;2022-09-09T03:44:42;25.00;48.20
35495;DHT22;21608;49.300;6.846;2022-09-09T03:47:45;25.00;48.40
35495;DHT22;21608;49.300;6.846;2022-09-09T03:50:50;25.00;48.30
35495;DHT22;21608;49.300;6.846;2022-09-09T03:53:52;25.00;48.40
35495;DHT22;21608;49.300;6.846;2022-09-09T03:56:57;25.00;48.30
35495;DHT22;21608;49.300;6.846;2022-09-09T04:00:03;25.00;48.30
35495;DHT22;21608;49.300;6.846;2022-09-09T04:03:16;25.10;48.30
35495;DHT22;21608;49.300;6.846;2022-09-09T04:06:19;25.00;48.30
35495;DHT22;21608;49.300;6.846;2022-09-09T04:09:22;25.00;48.30
35495;DHT22;21608;49.300;6.846;2022-09-09T04:12:25;25.00;48.30
35495;DHT22;21608;49.300;6.846;2022-09-09T04:15:27;25.00;48.40
35495;DHT22;21608;49.300;6.846;2022-09-09T04:18:31;25.00;48.50
35495;DHT22;21608;49.300;6.846;2022-09-09T04:21:34;25.00;48.40
35495;DHT22;21608;49.300;6.846;2022-09-09T04:24:36;25.10;48.30
35495;DHT22;21608;49.300;6.846;2022-09-09T04:27:38;25.00;48.10
35495;DHT22;21608;49.300;6.846;2022-09-09T04:30:42;25.00;48.20
35495;DHT22;21608;49.300;6.846;2022-09-09T04:33:44;25.00;48.30
35495;DHT22;21608;49.300;6.846;2022-09-09T04:36:46;25.00;48.20
35495;DHT22;21608;49.300;6.846;2022-09-09T04:39:48;25.00;48.30
35495;DHT22;21608;49.300;6.846;2022-09-09T04:42:50;25.00;48.40
35495;DHT22;21608;49.300;6.846;2022-09-09T04:45:52;25.00;48.30
35495;DHT22;21608;49.300;6.846;2022-09-09T04:48:57;25.00;48.20
35495;DHT22;21608;49.300;6.846;2022-09-09T04:52:04;25.00;48.20
35495;DHT22;21608;49.300;6.846;2022-09-09T04:55:08;25.00;48.20
35495;DHT22;21608;49.300;6.846;2022-09-09T04:58:11;25.00;48.20
35495;DHT22;21608;49.300;6.846;2022-09-09T05:01:19;25.00;48.20
35495;DHT22;21608;49.300;6.846;2022-09-09T05:04:23;25.00;48.20
35495;DHT22;21608;49.300;6.846;2022-09-09T05:07:26;25.00;48.10
35495;DHT22;21608;49.300;6.846;2022-09-09T05:10:29;24.90;48.10
35495;DHT22;21608;49.300;6.846;2022-09-09T05:13:32;24.90;48.10
35495;DHT22;21608;49.300;6.846;2022-09-09T05:16:34;24.90;48.10
35495;DHT22;21608;49.300;6.846;2022-09-09T05:19:36;24.90;48.00
35495;DHT22;21608;49.300;6.846;2022-09-09T05:22:38;24.90;48.00
35495;DHT22;21608;49.300;6.846;2022-09-09T05:25:40;24.90;48.00
35495;DHT22;21608;49.300;6.846;2022-09-09T05:28:43;24.90;47.90
35495;DHT22;21608;49.300;6.846;2022-09-09T05:31:45;24.90;47.90
35495;DHT22;21608;49.300;6.846;2022-09-09T05:34:51;24.90;47.90
35495;DHT22;21608;49.300;6.846;2022-09-09T05:37:53;24.90;47.80
35495;DHT22;21608;49.300;6.846;2022-09-09T05:41:01;24.90;47.80
35495;DHT22;21608;49.300;6.846;2022-09-09T05:44:04;24.90;47.80
35495;DHT22;21608;49.300;6.846;2022-09-09T05:47:11;24.90;47.80
35495;DHT22;21608;49.300;6.846;2022-09-09T05:50:13;24.90;47.80
35495;DHT22;21608;49.300;6.846;2022-09-09T05:53:16;24.90;47.80
35495;DHT22;21608;49.300;6.846;2022-09-09T05:56:23;24.90;47.70
35495;DHT22;21608;49.300;6.846;2022-09-09T05:59:26;24.90;47.80
35495;DHT22;21608;49.300;6.846;2022-09-09T06:02:30;24.90;47.80
35495;DHT22;21608;49.300;6.846;2022-09-09T06:05:34;24.90;47.80
35495;DHT22;21608;49.300;6.846;2022-09-09T06:08:38;24.90;47.80
35495;DHT22;21608;49.300;6.846;2022-09-09T06:11:41;24.90;47.70
35495;DHT22;21608;49.300;6.846;2022-09-09T06:14:43;24.90;47.70
35495;DHT22;21608;49.300;6.846;2022-09-09T06:17:54;24.90;47.70
35495;DHT22;21608;49.300;6.846;2022-09-09T06:20:58;24.90;47.70
35495;DHT22;21608;49.300;6.846;2022-09-09T06:24:01;24.90;47.80
35495;DHT22;21608;49.300;6.846;2022-09-09T06:27:03;24.90;47.80
35495;DHT22;21608;49.300;6.846;2022-09-09T06:30:08;24.90;47.80
35495;DHT22;21608;49.300;6.846;2022-09-09T06:33:11;24.90;47.80
35495;DHT22;21608;49.300;6.846;2022-09-09T06:36:15;24.90;47.90
35495;DHT22;21608;49.300;6.846;2022-09-09T06:39:17;24.90;47.90
35495;DHT22;21608;49.300;6.846;2022-09-09T06:42:20;24.80;47.60
35495;DHT22;21608;49.300;6.846;2022-09-09T06:45:41;24.70;47.80
35495;DHT22;21608;49.300;6.846;2022-09-09T06:48:43;24.70;47.90
35495;DHT22;21608;49.300;6.846;2022-09-09T06:51:50;24.80;47.90
35495;DHT22;21608;49.300;6.846;2022-09-09T06:54:55;24.80;47.90
35495;DHT22;21608;49.300;6.846;2022-09-09T06:57:57;24.80;47.90
35495;DHT22;21608;49.300;6.846;2022-09-09T07:01:04;24.90;47.90
35495;DHT22;21608;49.300;6.846;2022-09-09T07:04:08;24.90;47.90
35495;DHT22;21608;49.300;6.846;2022-09-09T07:07:11;24.90;48.00
35495;DHT22;21608;49.300;6.846;2022-09-09T07:10:15;24.90;48.00
35495;DHT22;21608;49.300;6.846;2022-09-09T07:13:18;24.90;47.90
35495;DHT22;21608;49.300;6.846;2022-09-09T07:16:23;24.90;48.00
35495;DHT22;21608;49.300;6.846;2022-09-09T07:19:26;24.90;48.10
35495;DHT22;21608;49.300;6.846;2022-09-09T07:22:29;25.00;48.20
35495;DHT22;21608;49.300;6.846;2022-09-09T07:25:31;25.00;49.20
35495;DHT22;21608;49.300;6.846;2022-09-09T07:28:34;25.00;48.60
35495;DHT22;21608;49.300;6.846;2022-09-09T07:31:38;25.00;48.70
35495;DHT22;21608;49.300;6.846;2022-09-09T07:34:45;25.00;48.70
35495;DHT22;21608;49.300;6.846;2022-09-09T07:37:49;25.00;48.60
35495;DHT22;21608;49.300;6.846;2022-09-09T07:40:53;25.00;51.90
35495;DHT22;21608;49.300;6.846;2022-09-09T07:43:56;25.20;55.60
35495;DHT22;21608;49.300;6.846;2022-09-09T07:47:01;25.20;50.20
35495;DHT22;21608;49.300;6.846;2022-09-09T07:50:09;25.10;49.60
35495;DHT22;21608;49.300;6.846;2022-09-09T07:53:12;25.10;49.70
35495;DHT22;21608;49.300;6.846;2022-09-09T07:56:16;25.10;49.80
35495;DHT22;21608;49.300;6.846;2022-09-09T07:59:19;25.10;49.90
35495;DHT22;21608;49.300;6.846;2022-09-09T08:02:24;25.20;49.50
35495;DHT22;21608;49.300;6.846;2022-09-09T08:05:27;25.30;49.20
35495;DHT22;21608;49.300;6.846;2022-09-09T08:08:29;25.20;49.20
35495;DHT22;21608;49.300;6.846;2022-09-09T08:11:32;25.20;49.10
35495;DHT22;21608;49.300;6.846;2022-09-09T08:14:40;25.20;49.50
35495;DHT22;21608;49.300;6.846;2022-09-09T08:17:41;25.10;49.30
35495;DHT22;21608;49.300;6.846;2022-09-09T08:20:44;25.10;50.00
35495;DHT22;21608;49.300;6.846;2022-09-09T08:23:46;25.10;49.40
35495;DHT22;21608;49.300;6.846;2022-09-09T08:26:50;25.10;49.50
35495;DHT22;21608;49.300;6.846;2022-09-09T08:29:56;25.10;49.50
35495;DHT22;21608;49.300;6.846;2022-09-09T08:32:58;25.10;49.50
35495;DHT22;21608;49.300;6.846;2022-09-09T08:36:02;25.10;49.50
35495;DHT22;21608;49.300;6.846;2022-09-09T08:39:06;25.10;49.50
35495;DHT22;21608;49.300;6.846;2022-09-09T08:42:22;25.10;49.40
35495;DHT22;21608;49.300;6.846;2022-09-09T08:45:33;25.10;49.40
35495;DHT22;21608;49.300;6.846;2022-09-09T08:49:00;25.20;49.40
35495;DHT22;21608;49.300;6.846;2022-09-09T08:52:08;25.20;49.40
35495;DHT22;21608;49.300;6.846;2022-09-09T08:58:34;25.30;49.20
35495;DHT22;21608;49.300;6.846;2022-09-09T09:02:00;25.40;49.00
35495;DHT22;21608;49.300;6.846;2022-09-09T09:05:20;25.40;49.00
35495;DHT22;21608;49.300;6.846;2022-09-09T09:11:38;25.50;49.00
35495;DHT22;21608;49.300;6.846;2022-09-09T09:14:40;25.50;49.00
35495;DHT22;21608;49.300;6.846;2022-09-09T09:17:45;25.50;48.90
35495;DHT22;21608;49.300;6.846;2022-09-09T09:21:13;25.50;48.80
35495;DHT22;21608;49.300;6.846;2022-09-09T09:24:25;25.50;48.90
35495;DHT22;21608;49.300;6.846;2022-09-09T09:31:09;25.60;49.80
35495;DHT22;21608;49.300;6.846;2022-09-09T09:34:14;25.60;49.40
35495;DHT22;21608;49.300;6.846;2022-09-09T09:37:21;25.70;49.60
35495;DHT22;21608;49.300;6.846;2022-09-09T09:40:25;25.60;49.40
35495;DHT22;21608;49.300;6.846;2022-09-09T09:43:28;25.60;49.50
35495;DHT22;21608;49.300;6.846;2022-09-09T09:46:32;25.70;49.80
35495;DHT22;21608;49.300;6.846;2022-09-09T09:50:18;25.70;50.00
35495;DHT22;21608;49.300;6.846;2022-09-09T09:53:27;25.80;49.90
35495;DHT22;21608;49.300;6.846;2022-09-09T09:56:31;25.80;50.10
35495;DHT22;21608;49.300;6.846;2022-09-09T09:59:37;25.80;50.10
35495;DHT22;21608;49.300;6.846;2022-09-09T10:02:48;25.80;50.00
35495;DHT22;21608;49.300;6.846;2022-09-09T10:05:57;25.80;50.10
35495;DHT22;21608;49.300;6.846;2022-09-09T10:09:00;25.80;50.20
35495;DHT22;21608;49.300;6.846;2022-09-09T10:12:24;25.80;50.30
35495;DHT22;21608;49.300;6.846;2022-09-09T10:19:00;25.70;52.00
35495;DHT22;21608;49.300;6.846;2022-09-09T10:22:35;25.70;51.80
35495;DHT22;21608;49.300;6.846;2022-09-09T10:26:03;25.70;52.60
35495;DHT22;21608;49.300;6.846;2022-09-09T10:36:02;25.50;52.50
35495;DHT22;21608;49.300;6.846;2022-09-09T10:39:37;25.40;52.40
35495;DHT22;21608;49.300;6.846;2022-09-09T10:42:44;25.30;52.40
35495;DHT22;21608;49.300;6.846;2022-09-09T10:56:15;25.50;52.30
35495;DHT22;21608;49.300;6.846;2022-09-09T10:59:20;25.50;52.10
35495;DHT22;21608;49.300;6.846;2022-09-09T11:02:28;25.50;51.30
35495;DHT22;21608;49.300;6.846;2022-09-09T11:08:38;25.60;51.40
35495;DHT22;21608;49.300;6.846;2022-09-09T11:11:53;25.60;51.30
35495;DHT22;21608;49.300;6.846;2022-09-09T11:15:15;25.60;50.70
35495;DHT22;21608;49.300;6.846;2022-09-09T11:18:22;25.60;51.00
35495;DHT22;21608;49.300;6.846;2022-09-09T11:21:46;25.60;51.90
35495;DHT22;21608;49.300;6.846;2022-09-09T11:28:35;25.60;51.90
35495;DHT22;21608;49.300;6.846;2022-09-09T11:32:06;25.60;51.80
35495;DHT22;21608;49.300;6.846;2022-09-09T11:38:47;25.50;49.50
35495;DHT22;21608;49.300;6.846;2022-09-09T11:41:49;25.50;49.40
35495;DHT22;21608;49.300;6.846;2022-09-09T11:44:51;25.50;49.70
35495;DHT22;21608;49.300;6.846;2022-09-09T11:47:57;25.50;50.00
35495;DHT22;21608;49.300;6.846;2022-09-09T11:51:02;25.50;49.80
35495;DHT22;21608;49.300;6.846;2022-09-09T11:54:32;25.60;49.80
35495;DHT22;21608;49.300;6.846;2022-09-09T11:57:38;25.50;49.90
35495;DHT22;21608;49.300;6.846;2022-09-09T12:00:45;25.50;49.80
35495;DHT22;21608;49.300;6.846;2022-09-09T12:03:50;25.60;49.80
35495;DHT22;21608;49.300;6.846;2022-09-09T12:10:30;25.60;49.60
35495;DHT22;21608;49.300;6.846;2022-09-09T12:13:34;25.60;49.40
35495;DHT22;21608;49.300;6.846;2022-09-09T12:16:37;25.60;49.30
35495;DHT22;21608;49.300;6.846;2022-09-09T12:19:40;25.60;49.40
35495;DHT22;21608;49.300;6.846;2022-09-09T12:32:25;25.60;49.70
35495;DHT22;21608;49.300;6.846;2022-09-09T12:35:28;25.60;49.80
35495;DHT22;21608;49.300;6.846;2022-09-09T12:38:37;25.60;50.10
35495;DHT22;21608;49.300;6.846;2022-09-09T12:41:40;25.60;50.10
35495;DHT22;21608;49.300;6.846;2022-09-09T12:44:51;25.50;50.10
35495;DHT22;21608;49.300;6.846;2022-09-09T12:47:56;25.60;50.10
35495;DHT22;21608;49.300;6.846;2022-09-09T12:50:59;25.60;50.10
35495;DHT22;21608;49.300;6.846;2022-09-09T12:54:01;25.50;50.30
35495;DHT22;21608;49.300;6.846;2022-09-09T12:57:05;25.50;50.10
35495;DHT22;21608;49.300;6.846;2022-09-09T13:00:15;25.50;50.20
35495;DHT22;21608;49.300;6.846;2022-09-09T13:03:19;25.60;50.50
35495;DHT22;21608;49.300;6.846;2022-09-09T13:06:27;25.50;50.30
35495;DHT22;21608;49.300;6.846;2022-09-09T13:09:30;25.50;50.10
35495;DHT22;21608;49.300;6.846;2022-09-09T13:12:32;25.50;50.40
35495;DHT22;21608;49.300;6.846;2022-09-09T13:15:33;25.50;50.40
35495;DHT22;21608;49.300;6.846;2022-09-09T13:18:37;25.50;50.30
35495;DHT22;21608;49.300;6.846;2022-09-09T13:21:42;25.50;50.00
35495;DHT22;21608;49.300;6.846;2022-09-09T13:24:44;25.50;49.90
35495;DHT22;21608;49.300;6.846;2022-09-09T13:28:05;25.50;49.90
35495;DHT22;21608;49.300;6.846;2022-09-09T13:31:27;25.50;49.80
35495;DHT22;21608;49.300;6.846;2022-09-09T13:34:32;25.50;49.80
35495;DHT22;21608;49.300;6.846;2022-09-09T13:37:39;25.50;49.80
35495;DHT22;21608;49.300;6.846;2022-09-09T13:41:11;25.50;49.90
35495;DHT22;21608;49.300;6.846;2022-09-09T13:44:28;25.50;50.00
35495;DHT22;21608;49.300;6.846;2022-09-09T13:47:35;25.50;50.00
35495;DHT22;21608;49.300;6.846;2022-09-09T13:50:37;25.50;50.00
35495;DHT22;21608;49.300;6.846;2022-09-09T13:53:39;25.50;50.00
35495;DHT22;21608;49.300;6.846;2022-09-09T13:56:43;25.50;49.90
35495;DHT22;21608;49.300;6.846;2022-09-09T13:59:45;25.50;50.10
35495;DHT22;21608;49.300;6.846;2022-09-09T14:03:05;25.50;50.00
35495;DHT22;21608;49.300;6.846;2022-09-09T14:06:10;25.50;50.20
35495;DHT22;21608;49.300;6.846;2022-09-09T14:09:14;25.50;50.10
35495;DHT22;21608;49.300;6.846;2022-09-09T14:12:17;25.50;50.10
35495;DHT22;21608;49.300;6.846;2022-09-09T14:15:19;25.50;50.10
35495;DHT22;21608;49.300;6.846;2022-09-09T14:18:21;25.50;50.20
35495;DHT22;21608;49.300;6.846;2022-09-09T14:21:25;25.50;50.20
35495;DHT22;21608;49.300;6.846;2022-09-09T14:24:27;25.50;50.20
35495;DHT22;21608;49.300;6.846;2022-09-09T14:27:32;25.50;50.20
35495;DHT22;21608;49.300;6.846;2022-09-09T14:30:34;25.60;50.20
35495;DHT22;21608;49.300;6.846;2022-09-09T14:33:36;25.60;50.20
35495;DHT22;21608;49.300;6.846;2022-09-09T14:36:38;25.60;50.30
35495;DHT22;21608;49.300;6.846;2022-09-09T14:39:39;25.60;50.20
35495;DHT22;21608;49.300;6.846;2022-09-09T14:42:41;25.50;50.30
35495;DHT22;21608;49.300;6.846;2022-09-09T14:45:43;25.60;50.40
35495;DHT22;21608;49.300;6.846;2022-09-09T14:48:45;25.60;50.40
35495;DHT22;21608;49.300;6.846;2022-09-09T14:51:50;25.50;50.30
35495;DHT22;21608;49.300;6.846;2022-09-09T14:54:51;25.50;50.30
35495;DHT22;21608;49.300;6.846;2022-09-09T14:57:53;25.60;50.30
35495;DHT22;21608;49.300;6.846;2022-09-09T15:00:55;25.50;50.30
35495;DHT22;21608;49.300;6.846;2022-09-09T15:03:59;25.50;50.30
35495;DHT22;21608;49.300;6.846;2022-09-09T15:07:01;25.50;50.30
35495;DHT22;21608;49.300;6.846;2022-09-09T15:10:04;25.50;50.40
35495;DHT22;21608;49.300;6.846;2022-09-09T15:13:06;25.50;50.40
35495;DHT22;21608;49.300;6.846;2022-09-09T15:16:27;25.50;50.40
35495;DHT22;21608;49.300;6.846;2022-09-09T15:19:29;25.50;50.40
35495;DHT22;21608;49.300;6.846;2022-09-09T15:22:32;25.50;50.40
35495;DHT22;21608;49.300;6.846;2022-09-09T15:25:33;25.50;50.40
35495;DHT22;21608;49.300;6.846;2022-09-09T15:28:37;25.50;50.20
35495;DHT22;21608;49.300;6.846;2022-09-09T15:31:39;25.50;50.40
35495;DHT22;21608;49.300;6.846;2022-09-09T15:34:41;25.40;50.20
35495;DHT22;21608;49.300;6.846;2022-09-09T15:37:43;25.50;50.30
35495;DHT22;21608;49.300;6.846;2022-09-09T15:40:53;25.50;50.40
35495;DHT22;21608;49.300;6.846;2022-09-09T15:43:57;25.50;50.40
35495;DHT22;21608;49.300;6.846;2022-09-09T15:46:59;25.50;50.40
35495;DHT22;21608;49.300;6.846;2022-09-09T15:50:01;25.50;50.40
35495;DHT22;21608;49.300;6.846;2022-09-09T15:53:02;25.50;50.40
35495;DHT22;21608;49.300;6.846;2022-09-09T15:56:05;25.50;50.30
35495;DHT22;21608;49.300;6.846;2022-09-09T15:59:08;25.40;50.30
35495;DHT22;21608;49.300;6.846;2022-09-09T16:02:09;25.50;50.40
35495;DHT22;21608;49.300;6.846;2022-09-09T16:05:11;25.40;50.40
35495;DHT22;21608;49.300;6.846;2022-09-09T16:08:13;25.40;50.40
35495;DHT22;21608;49.300;6.846;2022-09-09T16:11:21;25.40;50.40
35495;DHT22;21608;49.300;6.846;2022-09-09T16:14:24;25.50;50.40
35495;DHT22;21608;49.300;6.846;2022-09-09T16:17:27;25.40;50.40
35495;DHT22;21608;49.300;6.846;2022-09-09T16:20:29;25.40;50.50
35495;DHT22;21608;49.300;6.846;2022-09-09T16:23:32;25.50;50.50
35495;DHT22;21608;49.300;6.846;2022-09-09T16:26:36;25.40;50.50
35495;DHT22;21608;49.300;6.846;2022-09-09T16:29:38;25.50;50.40
35495;DHT22;21608;49.300;6.846;2022-09-09T16:32:39;25.50;50.40
35495;DHT22;21608;49.300;6.846;2022-09-09T16:35:41;25.50;50.40
35495;DHT22;21608;49.300;6.846;2022-09-09T16:38:43;25.50;50.40
35495;DHT22;21608;49.300;6.846;2022-09-09T16:41:46;25.50;50.40
35495;DHT22;21608;49.300;6.846;2022-09-09T16:44:49;25.50;50.50
35495;DHT22;21608;49.300;6.846;2022-09-09T16:47:51;25.50;50.40
35495;DHT22;21608;49.300;6.846;2022-09-09T16:50:53;25.50;50.50
35495;DHT22;21608;49.300;6.846;2022-09-09T16:54:03;25.50;50.30
35495;DHT22;21608;49.300;6.846;2022-09-09T16:57:07;25.50;50.50
35495;DHT22;21608;49.300;6.846;2022-09-09T17:00:09;25.50;50.50
35495;DHT22;21608;49.300;6.846;2022-09-09T17:03:15;25.50;50.50
35495;DHT22;21608;49.300;6.846;2022-09-09T17:06:17;25.50;50.60
35495;DHT22;21608;49.300;6.846;2022-09-09T17:09:20;25.50;50.50
35495;DHT22;21608;49.300;6.846;2022-09-09T17:12:22;25.50;50.50
35495;DHT22;21608;49.300;6.846;2022-09-09T17:15:24;25.50;50.50
35495;DHT22;21608;49.300;6.846;2022-09-09T17:18:27;25.50;50.60
35495;DHT22;21608;49.300;6.846;2022-09-09T17:21:30;25.50;50.60
35495;DHT22;21608;49.300;6.846;2022-09-09T17:24:32;25.40;50.60
35495;DHT22;21608;49.300;6.846;2022-09-09T17:27:35;25.40;50.60
35495;DHT22;21608;49.300;6.846;2022-09-09T17:30:37;25.40;50.60
35495;DHT22;21608;49.300;6.846;2022-09-09T17:33:41;25.40;50.80
35495;DHT22;21608;49.300;6.846;2022-09-09T17:36:44;25.50;50.70
35495;DHT22;21608;49.300;6.846;2022-09-09T17:39:45;25.40;50.60
35495;DHT22;21608;49.300;6.846;2022-09-09T17:42:47;25.40;50.50
35495;DHT22;21608;49.300;6.846;2022-09-09T17:45:49;25.30;50.50
35495;DHT22;21608;49.300;6.846;2022-09-09T17:48:55;25.30;50.50
35495;DHT22;21608;49.300;6.846;2022-09-09T17:51:57;25.30;50.50
35495;DHT22;21608;49.300;6.846;2022-09-09T17:54:59;25.30;50.60
35495;DHT22;21608;49.300;6.846;2022-09-09T17:58:01;25.30;50.60
35495;DHT22;21608;49.300;6.846;2022-09-09T18:01:23;25.40;50.70
35495;DHT22;21608;49.300;6.846;2022-09-09T18:04:25;25.40;50.60
35495;DHT22;21608;49.300;6.846;2022-09-09T18:07:27;25.40;50.60
35495;DHT22;21608;49.300;6.846;2022-09-09T18:10:28;25.40;50.60
35495;DHT22;21608;49.300;6.846;2022-09-09T18:13:30;25.40;50.50
35495;DHT22;21608;49.300;6.846;2022-09-09T18:16:33;25.40;50.60
35495;DHT22;21608;49.300;6.846;2022-09-09T18:19:37;25.40;50.70
35495;DHT22;21608;49.300;6.846;2022-09-09T18:22:38;25.40;50.50
35495;DHT22;21608;49.300;6.846;2022-09-09T18:25:40;25.40;50.50
35495;DHT22;21608;49.300;6.846;2022-09-09T18:28:47;25.40;50.60
35495;DHT22;21608;49.300;6.846;2022-09-09T18:31:50;25.40;50.60
35495;DHT22;21608;49.300;6.846;2022-09-09T18:34:51;25.40;50.70
35495;DHT22;21608;49.300;6.846;2022-09-09T18:37:56;25.30;50.80
35495;DHT22;21608;49.300;6.846;2022-09-09T18:40:58;25.30;50.80
35495;DHT22;21608;49.300;6.846;2022-09-09T18:44:03;25.30;50.80
35495;DHT22;21608;49.300;6.846;2022-09-09T18:47:05;25.30;50.90
35495;DHT22;21608;49.300;6.846;2022-09-09T18:50:08;25.30;50.90
35495;DHT22;21608;49.300;6.846;2022-09-09T18:53:10;25.40;50.90
35495;DHT22;21608;49.300;6.846;2022-09-09T18:56:12;25.40;50.80
35495;DHT22;21608;49.300;6.846;2022-09-09T18:59:17;25.40;50.80
35495;DHT22;21608;49.300;6.846;2022-09-09T19:02:20;25.40;50.90
35495;DHT22;21608;49.300;6.846;2022-09-09T19:05:22;25.40;50.90
35495;DHT22;21608;49.300;6.846;2022-09-09T19:08:24;25.40;50.80
35495;DHT22;21608;49.300;6.846;2022-09-09T19:11:26;25.40;50.80
35495;DHT22;21608;49.300;6.846;2022-09-09T19:14:28;25.30;50.80
35495;DHT22;21608;49.300;6.846;2022-09-09T19:17:30;25.30;50.80
35495;DHT22;21608;49.300;6.846;2022-09-09T19:20:33;25.30;50.80
35495;DHT22;21608;49.300;6.846;2022-09-09T19:23:35;25.30;50.70
35495;DHT22;21608;49.300;6.846;2022-09-09T19:26:39;25.30;50.80
35495;DHT22;21608;49.300;6.846;2022-09-09T19:29:41;25.30;50.70
35495;DHT22;21608;49.300;6.846;2022-09-09T19:32:45;25.30;50.60
35495;DHT22;21608;49.300;6.846;2022-09-09T19:36:05;25.30;50.70
35495;DHT22;21608;49.300;6.846;2022-09-09T19:39:08;25.30;50.70
35495;DHT22;21608;49.300;6.846;2022-09-09T19:42:10;25.30;50.70
35495;DHT22;21608;49.300;6.846;2022-09-09T19:45:15;25.30;50.70
35495;DHT22;21608;49.300;6.846;2022-09-09T19:48:17;25.30;50.70
35495;DHT22;21608;49.300;6.846;2022-09-09T19:51:21;25.20;50.70
35495;DHT22;21608;49.300;6.846;2022-09-09T19:54:23;25.30;50.70
35495;DHT22;21608;49.300;6.846;2022-09-09T19:57:26;25.30;51.40
35495;DHT22;21608;49.300;6.846;2022-09-09T20:00:30;25.30;50.80
35495;DHT22;21608;49.300;6.846;2022-09-09T20:03:35;25.30;50.80
35495;DHT22;21608;49.300;6.846;2022-09-09T20:06:39;25.30;50.70
35495;DHT22;21608;49.300;6.846;2022-09-09T20:09:41;25.30;50.70
35495;DHT22;21608;49.300;6.846;2022-09-09T20:12:43;25.30;50.70
35495;DHT22;21608;49.300;6.846;2022-09-09T20:15:44;25.30;50.60
35495;DHT22;21608;49.300;6.846;2022-09-09T20:18:52;25.30;50.60
35495;DHT22;21608;49.300;6.846;2022-09-09T20:21:54;25.30;50.70
35495;DHT22;21608;49.300;6.846;2022-09-09T20:24:56;25.30;50.70
35495;DHT22;21608;49.300;6.846;2022-09-09T20:27:57;25.30;50.70
35495;DHT22;21608;49.300;6.846;2022-09-09T20:31:05;25.30;50.70
35495;DHT22;21608;49.300;6.846;2022-09-09T20:34:13;25.30;50.70
35495;DHT22;21608;49.300;6.846;2022-09-09T20:37:15;25.30;50.70
35495;DHT22;21608;49.300;6.846;2022-09-09T20:40:17;25.30;50.70
35495;DHT22;21608;49.300;6.846;2022-09-09T20:43:20;25.20;50.60
35495;DHT22;21608;49.300;6.846;2022-09-09T20:46:28;25.20;50.60
35495;DHT22;21608;49.300;6.846;2022-09-09T20:49:30;25.20;50.60
35495;DHT22;21608;49.300;6.846;2022-09-09T20:52:35;25.20;50.60
35495;DHT22;21608;49.300;6.846;2022-09-09T20:55:37;25.20;50.60
35495;DHT22;21608;49.300;6.846;2022-09-09T20:58:38;25.20;50.60
35495;DHT22;21608;49.300;6.846;2022-09-09T21:01:41;25.20;50.60
35495;DHT22;21608;49.300;6.846;2022-09-09T21:04:43;25.20;50.60